Time;durP1;ratioP1;P1;durP2;ratioP2;P2;SDS_P1;SDS_P2;PMS_P1;PMS_P2;Temp;Humidity;BMP_temperature;BMP_pressure;BME280_temperature;BME280_humidity;BME280_pressure;Samples;Min_cycle;Max_cycle;Signal;HPM_P1;HPM_P2
2021/04/29 00:01:34;;;;;;;20.05;9.52;;;;;;;10.83;49.50;99618.78;5049628;28;20061;-67
2021/04/29 00:04:01;;;;;;;18.63;11.05;;;;;;;10.79;49.83;99614.69;5030257;28;20334;-68
2021/04/29 00:06:28;;;;;;;22.70;10.55;;;;;;;10.85;49.72;99611.59;5020149;28;20140;-67
2021/04/29 00:08:55;;;;;;;18.65;11.32;;;;;;;10.81;49.33;99616.28;5039700;28;20150;-68
2021/04/29 00:11:22;;;;;;;21.08;10.50;;;;;;;10.76;49.89;99612.28;5027783;28;20045;-68
2021/04/29 00:13:48;;;;;;;19.27;10.10;;;;;;;10.80;49.97;99619.00;5056233;28;20076;-67
2021/04/29 00:16:16;;;;;;;15.90;10.18;;;;;;;10.68;50.29;99617.31;5046712;28;20045;-67
2021/04/29 00:18:43;;;;;;;20.33;10.45;;;;;;;10.77;50.12;99620.09;5040978;28;20523;-67
2021/04/29 00:21:10;;;;;;;19.40;10.30;;;;;;;10.78;49.59;99615.66;5045823;28;20081;-68
2021/04/29 00:23:36;;;;;;;20.35;11.43;;;;;;;10.73;50.08;99617.81;5031374;28;20057;-68
2021/04/29 00:26:03;;;;;;;23.63;11.05;;;;;;;10.71;50.05;99607.38;5018156;28;20071;-68
2021/04/29 00:28:30;;;;;;;20.17;10.32;;;;;;;10.75;49.94;99611.44;5011604;28;20040;-69
2021/04/29 00:30:57;;;;;;;15.32;10.13;;;;;;;10.70;49.94;99615.41;5040495;28;20063;-67
2021/04/29 00:33:24;;;;;;;17.52;10.65;;;;;;;10.67;50.33;99607.72;5026191;28;20657;-69
2021/04/29 00:35:51;;;;;;;17.88;10.82;;;;;;;10.68;50.38;99606.78;5021028;28;20648;-68
2021/04/29 00:38:18;;;;;;;17.60;10.52;;;;;;;10.69;50.47;99611.94;5040267;28;20080;-68
2021/04/29 00:40:45;;;;;;;18.55;10.68;;;;;;;10.58;50.79;99607.50;5037519;28;20053;-69
2021/04/29 00:43:12;;;;;;;28.38;10.77;;;;;;;10.57;50.58;99603.16;5032854;28;20132;-67
2021/04/29 00:45:41;;;;;;;20.67;10.48;;;;;;;10.55;50.65;99607.69;5015052;28;20280;-68
2021/04/29 00:48:07;;;;;;;22.23;11.60;;;;;;;10.60;50.16;99612.63;4998600;28;20451;-68
2021/04/29 00:50:34;;;;;;;25.58;11.02;;;;;;;10.64;50.51;99609.66;5036451;28;20123;-68
2021/04/29 00:53:01;;;;;;;20.45;10.90;;;;;;;10.43;51.08;99605.97;5014472;28;20041;-68
2021/04/29 00:55:27;;;;;;;18.17;9.70;;;;;;;10.52;51.06;99614.97;5023490;28;20060;-68
2021/04/29 00:57:54;;;;;;;20.60;10.65;;;;;;;10.53;50.82;99604.34;5038840;28;20047;-69
2021/04/29 01:00:21;;;;;;;19.10;10.90;;;;;;;10.52;50.76;99613.19;5017550;28;20044;-67
2021/04/29 01:02:55;;;;;;;16.98;10.32;;;;;;;10.54;50.55;99605.19;5042654;28;20141;-68
2021/04/29 01:05:24;;;;;;;19.98;11.15;;;;;;;10.54;51.40;99599.94;5018718;28;20068;-67
2021/04/29 01:08:02;;;;;;;18.90;10.13;;;;;;;10.49;50.86;99600.28;5008371;28;20551;-66
2021/04/29 01:10:34;;;;;;;21.13;10.85;;;;;;;10.45;51.03;99598.84;5002920;28;20356;-68
2021/04/29 01:13:09;;;;;;;18.00;10.70;;;;;;;10.38;51.84;99589.69;5016965;28;20359;-69
2021/04/29 01:15:39;;;;;;;18.50;10.25;;;;;;;10.35;51.63;99589.91;5037294;28;20040;-66
2021/04/29 01:18:05;;;;;;;20.48;11.60;;;;;;;10.36;51.83;99586.38;5019145;28;20171;-69
2021/04/29 01:20:52;;;;;;;25.70;11.55;;;;;;;10.29;51.85;99588.59;5012689;28;20056;-67
2021/04/29 01:23:28;;;;;;;21.30;10.82;;;;;;;10.24;52.21;99574.94;5022960;28;20044;-68
2021/04/29 01:25:58;;;;;;;23.98;11.77;;;;;;;10.29;51.71;99577.25;4998996;28;20216;-68
2021/04/29 01:28:26;;;;;;;17.45;11.05;;;;;;;10.35;52.12;99577.59;5025294;28;20089;-67
2021/04/29 01:30:54;;;;;;;20.92;10.98;;;;;;;10.23;51.91;99575.88;5019547;28;20144;-68
2021/04/29 01:33:22;;;;;;;17.27;10.38;;;;;;;10.27;52.10;99579.16;5023102;28;20053;-66
2021/04/29 01:35:49;;;;;;;25.27;10.80;;;;;;;10.25;52.17;99574.00;5048011;28;20051;-67
2021/04/29 01:38:16;;;;;;;19.40;11.88;;;;;;;10.21;52.48;99577.75;5036784;28;20045;-68
2021/04/29 01:40:43;;;;;;;19.67;10.30;;;;;;;10.17;53.02;99578.94;5006272;28;20076;-68
2021/04/29 01:43:10;;;;;;;19.77;11.55;;;;;;;10.04;53.14;99578.16;5020459;28;20063;-67
2021/04/29 01:45:36;;;;;;;18.30;11.05;;;;;;;10.00;53.58;99568.84;5016826;28;20049;-69
2021/04/29 01:48:04;;;;;;;18.40;10.35;;;;;;;10.00;53.43;99569.69;5040933;28;20543;-68
2021/04/29 01:50:31;;;;;;;20.83;11.68;;;;;;;10.03;53.03;99572.06;5023384;28;20486;-69
2021/04/29 01:52:58;;;;;;;19.30;11.35;;;;;;;9.95;53.95;99574.44;5005659;28;20050;-70
2021/04/29 01:55:25;;;;;;;19.55;10.98;;;;;;;9.96;53.45;99564.75;5018984;28;20087;-68
2021/04/29 01:57:54;;;;;;;19.85;10.93;;;;;;;10.03;53.29;99563.34;5004690;28;20546;-69
2021/04/29 02:00:21;;;;;;;16.08;10.32;;;;;;;10.06;54.00;99565.75;5024945;28;20140;-68
2021/04/29 02:02:47;;;;;;;18.35;11.63;;;;;;;9.86;53.86;99567.19;5022218;28;20049;-68
2021/04/29 02:05:15;;;;;;;23.40;11.77;;;;;;;9.82;54.81;99556.09;5026122;28;20123;-68
2021/04/29 02:07:42;;;;;;;17.13;9.63;;;;;;;9.96;54.09;99559.50;5027886;28;20133;-69
2021/04/29 02:10:09;;;;;;;22.48;11.82;;;;;;;10.05;53.06;99564.94;5022625;28;20051;-69
2021/04/29 02:12:43;;;;;;;19.83;10.48;;;;;;;10.15;53.13;99554.56;5023766;28;20052;-69
2021/04/29 02:15:11;;;;;;;17.27;10.82;;;;;;;10.19;53.28;99549.91;4996147;28;20126;-68
2021/04/29 02:17:49;;;;;;;21.75;10.93;;;;;;;10.29;52.97;99543.03;5010463;28;20458;-70
2021/04/29 02:20:16;;;;;;;17.58;10.63;;;;;;;10.27;52.94;99540.53;5017849;28;20053;-71
2021/04/29 02:22:44;;;;;;;20.92;11.13;;;;;;;10.26;53.03;99536.19;5005513;28;20053;-68
2021/04/29 02:25:13;;;;;;;18.48;10.32;;;;;;;10.20;53.08;99528.75;5015040;28;20132;-69
2021/04/29 02:27:41;;;;;;;17.65;11.00;;;;;;;10.26;53.01;99527.47;5008622;28;20499;-69
2021/04/29 02:30:10;;;;;;;17.90;10.93;;;;;;;10.19;53.15;99523.63;5024981;28;20243;-69
2021/04/29 02:32:37;;;;;;;20.08;10.82;;;;;;;10.18;53.29;99519.28;5043508;28;20083;-68
2021/04/29 02:35:07;;;;;;;21.98;10.98;;;;;;;10.23;52.66;99518.00;5022412;28;20053;-68
2021/04/29 02:37:34;;;;;;;24.65;10.90;;;;;;;10.20;53.46;99520.03;5024344;28;20055;-69
2021/04/29 02:40:02;;;;;;;23.42;11.40;;;;;;;10.18;52.79;99506.13;5037060;28;20060;-68
2021/04/29 02:42:29;;;;;;;22.30;10.32;;;;;;;10.17;53.07;99510.56;5037644;28;20045;-69
2021/04/29 02:44:56;;;;;;;16.75;10.77;;;;;;;10.19;53.05;99505.22;5018317;28;20059;-67
2021/04/29 02:47:23;;;;;;;16.15;10.35;;;;;;;10.21;53.33;99509.38;5026249;28;20539;-69
2021/04/29 02:49:50;;;;;;;19.75;10.73;;;;;;;10.14;53.42;99501.13;5023319;28;20647;-69
2021/04/29 02:52:17;;;;;;;24.33;11.80;;;;;;;10.19;53.30;99498.16;5054962;28;20132;-68
2021/04/29 02:54:43;;;;;;;18.45;10.23;;;;;;;10.08;53.94;99498.94;5037165;28;20084;-68
2021/04/29 02:57:21;;;;;;;17.40;10.38;;;;;;;10.17;52.93;99491.31;5021431;28;20147;-69
2021/04/29 02:59:48;;;;;;;16.25;10.30;;;;;;;10.21;53.38;99490.13;5030203;28;20088;-69
2021/04/29 03:02:16;;;;;;;24.35;9.80;;;;;;;10.21;53.46;99492.75;5025164;28;20056;-68
2021/04/29 03:04:43;;;;;;;18.80;11.05;;;;;;;10.18;53.57;99490.34;5001744;28;20148;-68
2021/04/29 03:07:10;;;;;;;19.70;10.18;;;;;;;10.20;53.31;99491.09;5014872;28;20518;-68
2021/04/29 03:09:36;;;;;;;16.58;10.65;;;;;;;10.26;53.31;99485.41;5021177;28;20114;-69
2021/04/29 03:12:04;;;;;;;18.45;10.68;;;;;;;10.28;53.86;99486.97;4998378;28;20068;-68
2021/04/29 03:14:32;;;;;;;20.58;9.77;;;;;;;10.23;53.84;99486.44;5003287;28;20052;-69
2021/04/29 03:16:59;;;;;;;25.40;10.85;;;;;;;10.28;53.52;99480.88;5018346;28;20041;-69
2021/04/29 03:19:26;;;;;;;19.17;10.38;;;;;;;10.20;54.10;99472.69;5035429;28;20483;-68
2021/04/29 03:21:53;;;;;;;19.70;11.25;;;;;;;10.16;54.34;99472.06;5016775;28;20052;-69
2021/04/29 03:24:20;;;;;;;19.58;11.23;;;;;;;10.17;54.42;99473.75;5030978;28;20684;-68
2021/04/29 03:26:47;;;;;;;19.45;11.30;;;;;;;10.06;54.65;99482.44;5017469;28;20045;-68
2021/04/29 03:29:13;;;;;;;18.23;10.02;;;;;;;10.06;54.31;99482.44;5039542;28;20096;-69
2021/04/29 03:31:40;;;;;;;22.95;10.98;;;;;;;10.10;54.48;99486.53;5016920;28;20040;-69
2021/04/29 03:34:07;;;;;;;19.17;10.70;;;;;;;10.12;54.27;99487.25;5036855;28;20154;-70
2021/04/29 03:36:34;;;;;;;18.80;11.45;;;;;;;10.06;55.53;99487.72;4995657;28;20122;-66
2021/04/29 03:39:01;;;;;;;19.30;10.90;;;;;;;10.24;55.28;99497.81;5038748;28;20083;-68
2021/04/29 03:41:27;;;;;;;16.17;9.68;;;;;;;10.17;54.77;99492.16;5008990;28;20058;-69
2021/04/29 03:43:54;;;;;;;21.20;10.27;;;;;;;10.34;54.64;99490.91;5029003;28;20060;-69
2021/04/29 03:46:21;;;;;;;18.65;9.40;;;;;;;10.24;55.50;99497.81;5015403;28;20048;-67
2021/04/29 03:48:48;;;;;;;21.67;10.60;;;;;;;10.48;54.61;99490.69;5029758;28;20087;-70
2021/04/29 03:51:14;;;;;;;24.58;9.82;;;;;;;10.48;54.76;99492.50;5016776;28;20132;-68
2021/04/29 03:53:41;;;;;;;15.98;9.70;;;;;;;10.38;55.10;99489.72;5021426;28;20077;-70
2021/04/29 03:56:08;;;;;;;19.83;10.30;;;;;;;10.33;55.34;99490.09;5021512;28;20175;-68
2021/04/29 03:58:35;;;;;;;15.07;10.07;;;;;;;10.37;55.46;99481.00;5032398;28;20076;-67
2021/04/29 04:01:02;;;;;;;17.00;10.27;;;;;;;10.33;55.53;99468.19;5014728;28;20056;-68
2021/04/29 04:03:29;;;;;;;26.80;10.93;;;;;;;10.56;55.13;99477.78;5031069;28;20111;-67
2021/04/29 04:05:56;;;;;;;25.38;10.55;;;;;;;10.54;55.37;99479.72;5019864;28;20428;-67
2021/04/29 04:08:22;;;;;;;22.75;10.77;;;;;;;10.57;54.94;99479.47;5017974;28;20139;-66
2021/04/29 04:10:49;;;;;;;20.48;11.02;;;;;;;10.52;54.94;99492.13;5031942;28;20081;-67
2021/04/29 04:13:17;;;;;;;18.00;9.40;;;;;;;10.64;55.23;99504.38;5024824;28;20575;-69
2021/04/29 04:15:44;;;;;;;17.27;10.07;;;;;;;10.65;54.60;99515.72;5031195;28;20059;-66
2021/04/29 04:18:11;;;;;;;20.88;10.55;;;;;;;10.55;55.31;99512.13;5005911;28;20054;-67
2021/04/29 04:20:39;;;;;;;21.38;9.52;;;;;;;10.52;56.46;99509.72;5026253;28;20048;-66
2021/04/29 04:23:05;;;;;;;17.45;10.05;;;;;;;10.34;57.24;99497.00;5006901;28;20073;-69
2021/04/29 04:25:33;;;;;;;17.42;10.35;;;;;;;10.26;57.67;99482.75;5006132;28;20438;-67
2021/04/29 04:28:00;;;;;;;21.83;10.98;;;;;;;10.36;57.31;99463.56;5008578;28;20041;-68
2021/04/29 04:30:27;;;;;;;21.90;10.70;;;;;;;10.39;58.20;99450.13;5023668;28;20124;-68
2021/04/29 04:32:54;;;;;;;19.27;9.82;;;;;;;10.30;58.77;99457.91;5044619;28;20498;-69
2021/04/29 04:35:21;;;;;;;16.95;9.90;;;;;;;10.20;59.80;99456.91;5037645;28;20060;-68
2021/04/29 04:37:48;;;;;;;19.60;10.07;;;;;;;10.17;60.95;99463.22;5034816;28;20124;-69
2021/04/29 04:40:15;;;;;;;27.95;12.68;;;;;;;10.21;62.06;99469.94;5040554;28;20057;-69
2021/04/29 04:42:43;;;;;;;25.65;12.30;;;;;;;9.97;64.83;99453.38;5038783;28;20116;-68
2021/04/29 04:45:10;;;;;;;21.77;11.20;;;;;;;9.98;64.79;99452.44;5005821;28;20136;-68
2021/04/29 04:47:37;;;;;;;21.20;12.45;;;;;;;10.04;64.51;99463.34;5025845;28;20156;-69
2021/04/29 04:50:05;;;;;;;17.27;11.52;;;;;;;10.13;64.46;99460.00;5043466;28;20135;-69
2021/04/29 04:52:32;;;;;;;24.45;11.63;;;;;;;10.14;63.26;99448.53;5027168;22;20956;-71
2021/04/29 04:54:59;;;;;;;19.15;11.35;;;;;;;10.21;63.39;99442.78;5064235;28;20053;-72
2021/04/29 04:57:25;;;;;;;18.40;10.73;;;;;;;10.46;61.81;99457.59;5050471;28;20147;-70
2021/04/29 04:59:52;;;;;;;18.35;10.55;;;;;;;10.48;61.40;99459.13;5036264;28;20150;-71
2021/04/29 05:02:19;;;;;;;20.55;11.07;;;;;;;10.55;62.16;99472.66;5067763;28;20474;-70
2021/04/29 05:04:46;;;;;;;20.02;11.40;;;;;;;10.48;62.19;99464.38;5008984;28;20468;-72
2021/04/29 05:07:13;;;;;;;18.27;10.00;;;;;;;10.52;61.08;99465.00;5050871;28;20049;-72
2021/04/29 05:09:42;;;;;;;14.25;10.43;;;;;;;10.65;60.98;99469.19;5028271;28;20045;-70
2021/04/29 05:12:12;;;;;;;18.67;9.95;;;;;;;10.70;60.45;99473.25;5048279;28;20044;-71
2021/04/29 05:14:39;;;;;;;17.98;10.88;;;;;;;10.69;60.83;99482.13;5040608;28;20136;-71
2021/04/29 05:17:05;;;;;;;23.15;11.32;;;;;;;10.71;60.04;99491.56;5044638;28;20059;-71
2021/04/29 05:19:33;;;;;;;18.83;10.70;;;;;;;10.75;59.68;99500.06;5007227;28;20149;-70
2021/04/29 05:22:00;;;;;;;26.80;10.73;;;;;;;10.72;59.39;99495.88;5014559;28;20147;-70
2021/04/29 05:24:27;;;;;;;19.38;10.82;;;;;;;10.71;59.26;99493.34;5023401;28;20520;-70
2021/04/29 05:26:54;;;;;;;17.70;10.32;;;;;;;10.66;59.40;99501.59;5031013;28;20135;-72
2021/04/29 05:29:20;;;;;;;20.77;11.18;;;;;;;10.53;59.71;99487.72;5019872;28;20443;-73
2021/04/29 05:31:47;;;;;;;25.83;12.40;;;;;;;10.57;59.66;99481.25;5007608;28;20053;-71
2021/04/29 05:34:14;;;;;;;22.17;11.88;;;;;;;10.52;59.81;99478.97;5033860;28;20486;-73
2021/04/29 05:36:41;;;;;;;26.30;12.35;;;;;;;10.64;59.44;99483.31;5033954;28;20102;-73
2021/04/29 05:39:07;;;;;;;19.38;11.50;;;;;;;10.63;59.49;99481.63;5055475;28;20056;-73
2021/04/29 05:41:34;;;;;;;17.80;11.45;;;;;;;10.58;60.19;99477.66;5033853;28;20589;-74
2021/04/29 05:44:01;;;;;;;21.80;12.25;;;;;;;10.54;60.65;99471.81;5037825;28;20130;-74
2021/04/29 05:46:28;;;;;;;19.73;10.80;;;;;;;10.58;60.89;99475.03;5033683;28;20044;-73
2021/04/29 05:48:55;;;;;;;19.17;10.77;;;;;;;10.54;60.73;99474.47;5019270;28;20115;-73
2021/04/29 05:51:22;;;;;;;21.10;11.73;;;;;;;10.56;60.85;99476.97;5048384;28;20084;-72
2021/04/29 05:53:48;;;;;;;28.45;11.30;;;;;;;10.42;61.70;99478.03;5049260;28;20147;-74
2021/04/29 05:56:15;;;;;;;20.88;11.75;;;;;;;10.44;62.80;99473.47;5041462;28;20060;-71
2021/04/29 05:58:43;;;;;;;19.80;11.05;;;;;;;10.27;62.95;99468.69;5046183;28;20083;-71
2021/04/29 06:01:11;;;;;;;19.67;11.80;;;;;;;10.14;64.92;99463.47;5043233;28;20128;-70
2021/04/29 06:03:38;;;;;;;21.48;11.93;;;;;;;10.19;66.01;99463.13;5008445;28;20041;-69
2021/04/29 06:06:05;;;;;;;21.52;12.05;;;;;;;10.09;67.36;99465.63;5027879;28;20587;-68
2021/04/29 06:08:32;;;;;;;17.42;11.15;;;;;;;10.16;67.75;99466.81;5029411;28;20053;-69
2021/04/29 06:10:59;;;;;;;21.42;12.13;;;;;;;10.04;68.00;99458.06;5019270;28;20088;-69
2021/04/29 06:13:26;;;;;;;27.25;13.63;;;;;;;9.92;68.32;99459.00;5010516;28;21593;-67
2021/04/29 06:15:53;;;;;;;23.20;12.13;;;;;;;9.88;69.49;99458.38;5022071;28;20045;-68
2021/04/29 06:18:19;;;;;;;20.65;12.68;;;;;;;9.80;70.87;99457.25;5016829;28;20120;-68
2021/04/29 06:20:46;;;;;;;25.15;14.43;;;;;;;9.68;72.09;99460.78;5025030;28;20051;-69
2021/04/29 06:23:13;;;;;;;25.17;13.38;;;;;;;9.84;71.87;99461.34;4996891;28;20053;-70
2021/04/29 06:25:41;;;;;;;26.20;13.48;;;;;;;9.68;72.50;99455.53;5017100;28;20059;-68
2021/04/29 06:28:07;;;;;;;22.58;12.35;;;;;;;9.71;73.51;99464.03;5027277;28;20045;-68
2021/04/29 06:30:34;;;;;;;26.23;13.55;;;;;;;9.81;71.68;99458.94;5027469;28;20414;-69
2021/04/29 06:33:01;;;;;;;21.98;14.10;;;;;;;9.83;72.53;99465.75;5040396;28;20053;-68
2021/04/29 06:35:28;;;;;;;24.58;13.55;;;;;;;9.73;73.20;99475.28;5048010;28;20149;-69
2021/04/29 06:37:57;;;;;;;22.45;14.90;;;;;;;9.70;74.18;99472.03;5013962;28;20136;-69
2021/04/29 06:40:25;;;;;;;17.73;13.13;;;;;;;9.77;74.92;99478.50;5037223;28;20436;-68
2021/04/29 06:42:51;;;;;;;24.50;13.90;;;;;;;9.82;74.51;99481.66;5044140;28;20064;-68
2021/04/29 06:45:18;;;;;;;23.00;13.35;;;;;;;9.86;74.10;99476.06;5041947;28;20049;-70
2021/04/29 06:47:47;;;;;;;27.85;13.10;;;;;;;9.92;73.81;99471.28;5044403;28;20041;-68
2021/04/29 06:50:13;;;;;;;24.13;13.60;;;;;;;9.96;75.75;99472.75;5010720;28;20069;-68
2021/04/29 06:52:40;;;;;;;20.92;13.63;;;;;;;9.94;76.73;99475.47;5041984;28;20602;-69
2021/04/29 06:55:07;;;;;;;18.42;13.68;;;;;;;9.86;76.96;99477.81;5041408;28;20059;-70
2021/04/29 06:57:34;;;;;;;26.55;13.90;;;;;;;9.90;78.33;99476.66;5023737;28;20049;-69
2021/04/29 07:00:01;;;;;;;21.88;13.10;;;;;;;9.98;79.43;99474.28;5045134;28;20049;-69
2021/04/29 07:02:27;;;;;;;19.83;12.25;;;;;;;9.95;78.82;99471.03;5023195;28;20123;-69
2021/04/29 07:05:02;;;;;;;23.98;14.65;;;;;;;9.91;80.12;99473.09;5026780;28;20079;-70
2021/04/29 07:07:28;;;;;;;20.30;13.20;;;;;;;10.00;80.44;99464.50;5026023;28;20043;-68
2021/04/29 07:09:55;;;;;;;28.10;15.32;;;;;;;9.89;81.33;99465.28;5042310;28;20578;-69
2021/04/29 07:12:22;;;;;;;26.00;14.27;;;;;;;9.94;82.90;99467.59;5020941;28;20057;-68
2021/04/29 07:14:49;;;;;;;26.30;14.30;;;;;;;9.96;84.24;99463.06;5042265;28;20140;-69
2021/04/29 07:17:15;;;;;;;22.85;14.68;;;;;;;9.99;83.80;99468.06;5043492;28;20041;-68
2021/04/29 07:19:43;;;;;;;25.63;13.48;;;;;;;10.01;84.62;99463.56;5046165;28;20136;-69
2021/04/29 07:22:10;;;;;;;21.63;13.00;;;;;;;9.83;86.48;99457.88;5028090;28;20114;-70
2021/04/29 07:24:36;;;;;;;19.73;11.88;;;;;;;9.75;86.19;99470.75;5028408;28;20087;-71
2021/04/29 07:27:04;;;;;;;15.63;11.75;;;;;;;9.63;86.88;99459.34;5047514;28;20565;-71
2021/04/29 07:29:32;;;;;;;18.88;12.13;;;;;;;9.72;88.44;99457.00;5029831;28;20562;-70
2021/04/29 07:32:02;;;;;;;19.92;11.90;;;;;;;9.55;87.95;99447.75;5044427;28;20132;-71
2021/04/29 07:34:29;;;;;;;18.70;11.85;;;;;;;9.64;88.93;99441.81;5021159;28;20333;-70
2021/04/29 07:37:00;;;;;;;17.25;12.45;;;;;;;9.61;89.82;99450.75;5025980;28;20099;-70
2021/04/29 07:39:27;;;;;;;18.80;11.95;;;;;;;9.60;90.91;99448.25;5029739;28;20081;-70
2021/04/29 07:41:54;;;;;;;16.85;12.50;;;;;;;9.45;92.32;99446.72;5027135;28;20089;-70
2021/04/29 07:44:21;;;;;;;17.65;12.57;;;;;;;9.32;93.66;99442.38;5047191;28;20144;-68
2021/04/29 07:46:48;;;;;;;19.05;12.75;;;;;;;9.37;93.29;99453.38;5043179;28;20622;-70
2021/04/29 07:49:15;;;;;;;20.40;13.18;;;;;;;9.38;94.41;99465.56;5043920;28;20171;-70
2021/04/29 07:51:41;;;;;;;18.42;13.18;;;;;;;9.43;95.17;99469.66;5049816;28;20088;-72
2021/04/29 07:54:08;;;;;;;21.92;14.57;;;;;;;9.34;96.76;99482.50;5026446;28;20205;-70
2021/04/29 07:56:35;;;;;;;23.00;13.25;;;;;;;9.32;96.57;99481.78;5022507;28;20049;-71
2021/04/29 07:59:02;;;;;;;21.65;14.50;;;;;;;9.20;97.28;99484.44;5026892;28;20457;-71
2021/04/29 08:01:29;;;;;;;19.50;14.55;;;;;;;9.18;98.61;99479.28;5047043;28;20053;-70
2021/04/29 08:03:56;;;;;;;20.85;15.40;;;;;;;9.06;98.29;99475.75;5026283;28;20051;-69
2021/04/29 08:06:22;;;;;;;22.23;14.07;;;;;;;9.07;99.17;99468.72;4995217;28;20094;-69
2021/04/29 08:08:49;;;;;;;23.10;14.68;;;;;;;9.03;100.00;99469.88;5031017;28;20049;-68
2021/04/29 08:11:16;;;;;;;17.55;14.75;;;;;;;8.98;100.00;99478.06;5027229;28;20087;-69
2021/04/29 08:13:42;;;;;;;18.83;14.32;;;;;;;8.97;100.00;99462.44;5031298;28;20139;-69
2021/04/29 08:16:09;;;;;;;22.33;17.05;;;;;;;8.91;100.00;99461.06;5015432;28;20103;-70
2021/04/29 08:18:36;;;;;;;24.27;16.58;;;;;;;8.88;100.00;99463.94;5045332;28;20059;-69
2021/04/29 08:21:05;;;;;;;20.55;16.35;;;;;;;8.90;100.00;99458.56;5053132;28;20071;-69
2021/04/29 08:23:31;;;;;;;23.38;18.05;;;;;;;8.87;100.00;99452.59;5049283;28;20052;-70
2021/04/29 08:25:58;;;;;;;20.67;17.33;;;;;;;8.90;100.00;99450.69;5054690;28;20136;-69
2021/04/29 08:28:25;;;;;;;23.20;17.63;;;;;;;8.90;100.00;99455.94;5055380;28;20051;-69
2021/04/29 08:30:52;;;;;;;24.50;18.15;;;;;;;8.91;100.00;99447.09;5052894;28;20084;-69
2021/04/29 08:33:19;;;;;;;23.58;17.35;;;;;;;8.82;100.00;99440.72;5045970;28;20132;-69
2021/04/29 08:35:45;;;;;;;26.75;18.02;;;;;;;8.86;100.00;99437.78;5035488;28;20486;-69
2021/04/29 08:38:12;;;;;;;21.48;17.23;;;;;;;8.88;100.00;99443.78;5037986;28;20067;-70
2021/04/29 08:40:39;;;;;;;22.77;18.05;;;;;;;8.86;100.00;99440.41;5032138;28;20042;-69
2021/04/29 08:43:06;;;;;;;25.60;17.73;;;;;;;8.88;100.00;99445.56;5045041;28;20057;-70
2021/04/29 08:45:33;;;;;;;22.70;17.55;;;;;;;8.96;100.00;99443.22;5049348;28;20542;-68
2021/04/29 08:48:03;;;;;;;25.17;18.42;;;;;;;9.06;100.00;99439.00;5012502;28;20152;-68
2021/04/29 08:50:31;;;;;;;27.20;18.25;;;;;;;9.01;100.00;99448.16;5033852;28;20045;-69
2021/04/29 08:52:58;;;;;;;23.55;20.02;;;;;;;9.08;100.00;99452.84;5032806;28;20069;-69
2021/04/29 08:55:27;;;;;;;23.35;17.52;;;;;;;9.09;100.00;99457.13;5043048;28;20120;-69
2021/04/29 08:57:56;;;;;;;25.00;18.63;;;;;;;9.11;100.00;99457.88;4996605;28;20073;-68
2021/04/29 09:00:23;;;;;;;24.98;18.02;;;;;;;9.25;100.00;99453.44;5050047;28;20458;-68
2021/04/29 09:02:54;;;;;;;27.13;18.30;;;;;;;9.30;100.00;99454.75;5024508;28;20140;-68
2021/04/29 09:05:29;;;;;;;29.83;18.25;;;;;;;9.35;100.00;99449.19;5036473;28;20132;-68
2021/04/29 09:08:07;;;;;;;22.95;17.90;;;;;;;9.53;100.00;99441.75;5019874;28;20057;-70
2021/04/29 09:10:37;;;;;;;25.75;18.02;;;;;;;9.55;100.00;99448.56;5013405;28;20139;-70
2021/04/29 09:13:33;;;;;;;29.33;17.35;;;;;;;9.76;100.00;99445.31;5019377;28;20049;-69
2021/04/29 09:16:09;;;;;;;21.75;17.25;;;;;;;9.88;100.00;99436.50;4988212;28;20085;-69
2021/04/29 09:18:36;;;;;;;;;;;;;;;10.09;100.00;99442.78;5025697;28;20041;-69
2021/04/29 09:21:11;;;;;;;22.25;16.23;;;;;;;10.22;100.00;99440.06;5023252;28;19947;-70
2021/04/29 09:23:45;;;;;;;23.35;15.52;;;;;;;10.37;100.00;99445.97;5029413;28;20114;-69
2021/04/29 09:26:17;;;;;;;27.23;15.97;;;;;;;10.52;99.75;99443.94;5025763;28;20111;-69
2021/04/29 09:28:48;;;;;;;22.42;15.30;;;;;;;10.57;99.07;99439.16;5034035;28;20051;-70
2021/04/29 09:31:21;;;;;;;21.52;14.70;;;;;;;10.59;98.03;99432.81;5043806;28;20694;-69
2021/04/29 09:33:50;;;;;;;21.20;16.80;;;;;;;10.59;99.70;99432.81;5015513;28;20103;-69
2021/04/29 09:36:24;;;;;;;18.05;14.95;;;;;;;11.10;96.71;99427.03;5048752;28;20118;-69
2021/04/29 09:38:54;;;;;;;25.95;14.88;;;;;;;11.77;94.13;99423.31;5037255;28;20139;-68
2021/04/29 09:41:26;;;;;;;22.50;14.65;;;;;;;12.51;89.53;99417.13;5020008;28;20084;-69
2021/04/29 09:43:56;;;;;;;20.80;13.15;;;;;;;13.71;84.39;99417.97;5030181;28;20499;-69
2021/04/29 09:46:36;;;;;;;17.52;13.70;;;;;;;14.05;80.26;99405.09;5026897;28;20051;-70
2021/04/29 09:49:30;;;;;;;16.75;12.38;;;;;;;15.07;75.48;99400.69;5025101;28;20056;-69
2021/04/29 09:51:58;;;;;;;21.83;13.85;;;;;;;15.00;75.24;99404.94;5024076;28;20455;-68
2021/04/29 09:54:26;;;;;;;19.75;13.90;;;;;;;14.50;78.65;99405.31;5010915;28;20124;-69
2021/04/29 09:56:57;;;;;;;15.57;13.27;;;;;;;14.60;77.70;99408.75;5009796;28;20407;-69
2021/04/29 09:59:25;;;;;;;18.88;13.32;;;;;;;14.74;78.01;99401.31;5040845;28;20049;-69
2021/04/29 10:01:56;;;;;;;19.83;13.27;;;;;;;14.73;77.04;99400.47;5031764;28;20065;-68
2021/04/29 10:04:24;;;;;;;18.02;13.85;;;;;;;14.62;77.25;99401.47;5024561;28;20529;-69
2021/04/29 10:06:56;;;;;;;16.20;13.93;;;;;;;14.50;79.33;99399.16;5027095;28;20057;-68
2021/04/29 10:09:27;;;;;;;19.42;14.82;;;;;;;14.60;79.19;99402.63;5026805;28;20025;-69
2021/04/29 10:11:59;;;;;;;20.08;14.82;;;;;;;14.73;78.57;99399.66;5003625;28;20191;-69
2021/04/29 10:14:26;;;;;;;16.02;14.13;;;;;;;14.62;79.16;99396.19;5024614;28;20053;-71
2021/04/29 10:16:53;;;;;;;20.33;15.73;;;;;;;14.44;79.83;99395.25;5012474;28;20041;-71
2021/04/29 10:19:20;;;;;;;21.42;14.65;;;;;;;14.16;80.00;99399.66;5042619;28;20068;-70
2021/04/29 10:21:48;;;;;;;18.42;15.05;;;;;;;13.84;82.78;99403.47;5024315;28;20807;-69
2021/04/29 10:24:15;;;;;;;17.55;15.75;;;;;;;13.69;83.91;99402.25;5030047;28;20531;-69
2021/04/29 10:26:42;;;;;;;20.83;17.15;;;;;;;13.48;85.68;99402.38;5012843;28;20109;-76
2021/04/29 10:29:10;;;;;;;19.60;16.55;;;;;;;13.48;85.79;99404.19;4997390;28;20072;-69
2021/04/29 10:31:36;;;;;;;20.67;17.17;;;;;;;13.54;85.78;99414.22;5015388;28;20055;-69
2021/04/29 10:34:25;;;;;;;20.60;17.48;;;;;;;13.67;84.03;99410.31;5030631;28;20935;-70
2021/04/29 10:36:52;;;;;;;20.75;18.65;;;;;;;13.40;86.01;99415.47;5042096;28;20044;-68
2021/04/29 10:39:23;;;;;;;22.65;19.52;;;;;;;13.38;86.13;99415.59;5039173;28;20041;-69
2021/04/29 10:42:06;;;;;;;20.75;18.55;;;;;;;13.32;86.13;99417.94;5015912;28;20184;-69
2021/04/29 10:44:45;;;;;;;22.92;18.98;;;;;;;13.01;87.46;99418.00;5046620;28;20073;-69
2021/04/29 10:47:26;;;;;;;22.35;19.90;;;;;;;13.11;88.44;99425.97;5028888;28;20052;-69
2021/04/29 10:50:06;;;;;;;23.17;20.70;;;;;;;13.27;86.73;99433.38;5005446;28;20126;-70
2021/04/29 10:52:53;;;;;;;33.92;23.45;;;;;;;13.62;84.56;99422.28;5017121;28;20075;-70
2021/04/29 10:55:36;;;;;;;26.00;20.48;;;;;;;14.12;81.67;99422.09;5079383;22;20062;-73
2021/04/29 10:58:06;;;;;;;23.77;20.98;;;;;;;14.23;79.71;99431.69;5053412;28;20054;-72
2021/04/29 11:00:52;;;;;;;24.38;21.08;;;;;;;14.75;77.53;99429.47;5084928;28;20425;-72
2021/04/29 11:03:28;;;;;;;28.30;22.13;;;;;;;15.42;73.64;99423.75;5071872;28;20036;-71
2021/04/29 11:06:10;;;;;;;24.70;21.95;;;;;;;15.87;72.19;99419.38;5049342;28;20048;-70
2021/04/29 11:08:39;;;;;;;25.88;23.08;;;;;;;15.76;70.87;99414.31;5047546;28;20112;-71
2021/04/29 11:11:26;;;;;;;26.15;22.42;;;;;;;16.34;68.36;99417.22;5062596;28;20052;-73
2021/04/29 11:13:57;;;;;;;28.77;21.92;;;;;;;16.95;65.45;99424.22;5057898;28;20305;-73
2021/04/29 11:16:23;;;;;;;24.52;22.02;;;;;;;17.06;65.96;99420.41;5041545;28;20048;-73
2021/04/29 11:18:50;;;;;;;27.77;23.20;;;;;;;16.72;64.99;99423.13;5048971;28;20041;-72
2021/04/29 11:21:24;;;;;;;26.77;21.88;;;;;;;16.89;64.17;99429.34;5086451;28;20075;-72
2021/04/29 11:23:51;;;;;;;28.67;22.90;;;;;;;16.64;63.98;99423.88;5088797;28;20048;-71
2021/04/29 11:26:20;;;;;;;30.05;22.05;;;;;;;16.67;63.92;99423.56;5074540;28;20059;-71